FDX55 UKBB-KSEA
Flight info
| Callsign | FDX55 |
|---|---|
| Flight time | N/A |
| Altitude | 30000 |
| Route | TUVOG M856 LOVIK N623 NASKA M850 DUBIN/N0493F300 Y96 DOLAT DCT DIVAM DCT PENIV DCT LENSO DCT ETSON/N0488F320 DCT BALAK DCT ABGUN DCT 72N001E/M083F320 76N014W 78N037W 78N064W/N0486F340 75N085W 71N099W 67N108W 62N114W/N0478F360 57N118W DCT YWL DCT YWL/N0476F370 J534 HUH/N0475F360 DCT ROESH MARNR8 |
| Aircraft | MD11/H-SDE1E2E3FGHIJ2J3J4J5M1RWXY/LB1D1 |
Departure
| Time | 2025-10-08 01:33 |
|---|---|
| Airport | Boryspil International Airport (UKBB) |
Arrival
| Time | N/A |
|---|---|
| Airport | Seattle–Tacoma International Airport (KSEA) |
| Time | Latitude | Longitude | Altitude | Speed | Heading |
|---|---|---|---|---|---|
| 2025-10-08 01:22 | 50.33559 | 30.89864 | 435 ft | 0 kts | 182° |
| 2025-10-08 01:26 | 50.33543 | 30.89863 | 421 ft | 3 kts | 182° |
| 2025-10-08 01:26 | 50.33498 | 30.89942 | 425 ft | 6 kts | 96° |
| 2025-10-08 01:27 | 50.33537 | 30.90118 | 425 ft | 12 kts | 21° |
| 2025-10-08 01:27 | 50.33760 | 30.90153 | 423 ft | 20 kts | 3° |
| 2025-10-08 01:28 | 50.33916 | 30.90163 | 424 ft | 24 kts | 1° |
| 2025-10-08 01:28 | 50.34302 | 30.90180 | 429 ft | 31 kts | 4° |
| 2025-10-08 01:29 | 50.34726 | 30.90224 | 419 ft | 31 kts | 3° |
| 2025-10-08 01:29 | 50.35151 | 30.90254 | 422 ft | 31 kts | 2° |
| 2025-10-08 01:30 | 50.35573 | 30.90283 | 426 ft | 29 kts | 3° |
| 2025-10-08 01:31 | 50.36032 | 30.90589 | 420 ft | 16 kts | 142° |
| 2025-10-08 01:31 | 50.35670 | 30.90618 | 417 ft | 73 kts | 182° |
| 2025-10-08 01:31 | 50.34918 | 30.90562 | 421 ft | 141 kts | 183° |
| 2025-10-08 01:32 | 50.32299 | 30.90385 | 601 ft | 214 kts | 182° |
| 2025-10-08 01:32 | 50.29310 | 30.90230 | 1854 ft | 220 kts | 179° |
| 2025-10-08 01:33 | 50.26158 | 30.90077 | 2544 ft | 237 kts | 179° |
| 2025-10-08 01:33 | 50.22630 | 30.89923 | 2838 ft | 268 kts | 179° |
| 2025-10-08 01:34 | 50.17246 | 30.90559 | 4291 ft | 263 kts | 155° |
| 2025-10-08 01:34 | 50.15739 | 30.92097 | 5046 ft | 259 kts | 129° |
| 2025-10-08 01:35 | 50.14881 | 30.97285 | 6349 ft | 259 kts | 75° |
| 2025-10-08 01:35 | 50.17264 | 31.01383 | 7464 ft | 272 kts | 20° |
| 2025-10-08 01:36 | 50.21103 | 31.01322 | 8521 ft | 285 kts | 351° |
| 2025-10-08 01:36 | 50.25039 | 31.00109 | 9647 ft | 291 kts | 350° |
| 2025-10-08 01:37 | 50.29151 | 30.98868 | 10262 ft | 317 kts | 350° |
| 2025-10-08 01:37 | 50.33716 | 30.97543 | 10554 ft | 354 kts | 350° |
| 2025-10-08 01:38 | 50.38715 | 30.96114 | 11396 ft | 370 kts | 350° |
| 2025-10-08 01:38 | 50.43830 | 30.94657 | 12529 ft | 377 kts | 350° |
| 2025-10-08 01:39 | 50.49038 | 30.93174 | 13627 ft | 383 kts | 349° |
| 2025-10-08 01:39 | 50.54327 | 30.91667 | 14585 ft | 389 kts | 349° |
| 2025-10-08 01:40 | 50.59667 | 30.90143 | 15463 ft | 395 kts | 349° |
| 2025-10-08 01:40 | 50.62399 | 30.89512 | 15859 ft | 398 kts | 358° |
| 2025-10-08 01:41 | 50.67938 | 30.90281 | 16672 ft | 403 kts | 10° |
| 2025-10-08 01:41 | 50.73502 | 30.91911 | 17466 ft | 409 kts | 11° |
| 2025-10-08 01:42 | 50.79150 | 30.93545 | 18226 ft | 416 kts | 11° |
| 2025-10-08 01:42 | 50.87799 | 30.95916 | 19201 ft | 425 kts | 10° |
| 2025-10-08 01:43 | 50.93675 | 30.97473 | 19781 ft | 431 kts | 7° |
| 2025-10-08 01:43 | 50.99700 | 30.98099 | 20369 ft | 436 kts | 1° |
| 2025-10-08 01:44 | 51.02749 | 30.98178 | 20666 ft | 439 kts | 0° |
| 2025-10-08 01:44 | 51.08851 | 30.98291 | 21260 ft | 444 kts | 0° |
| 2025-10-08 01:45 | 51.15079 | 30.98456 | 21859 ft | 449 kts | 0° |
| 2025-10-08 01:45 | 51.21365 | 30.98659 | 22488 ft | 454 kts | 0° |
| 2025-10-08 01:46 | 51.34128 | 30.99091 | 23777 ft | 464 kts | 360° |
| 2025-10-08 01:47 | 51.40616 | 30.99311 | 24384 ft | 468 kts | 360° |
| 2025-10-08 01:47 | 51.43886 | 30.99422 | 24681 ft | 470 kts | 360° |
| 2025-10-08 01:48 | 51.63770 | 31.00098 | 26444 ft | 483 kts | 359° |
| 2025-10-08 01:50 | 51.91091 | 31.00996 | 28615 ft | 500 kts | 358° |
| 2025-10-08 01:52 | 52.16918 | 30.90981 | 30201 ft | 481 kts | 313° |
| 2025-10-08 01:54 | 52.37625 | 30.62819 | 30227 ft | 487 kts | 315° |
| 2025-10-08 01:56 | 52.56056 | 30.38163 | 30222 ft | 491 kts | 316° |
| 2025-10-08 01:58 | 52.79062 | 30.06961 | 30221 ft | 497 kts | 316° |
| 2025-10-08 02:00 | 52.97761 | 29.81364 | 30230 ft | 498 kts | 316° |
| 2025-10-08 02:02 | 53.21661 | 29.48114 | 30233 ft | 498 kts | 315° |
| 2025-10-08 02:04 | 53.42857 | 29.18282 | 30239 ft | 498 kts | 315° |
| 2025-10-08 02:06 | 53.64297 | 28.88922 | 30243 ft | 503 kts | 327° |
| 2025-10-08 02:08 | 53.89503 | 28.68079 | 30244 ft | 504 kts | 330° |
| 2025-10-08 02:10 | 54.14626 | 28.46845 | 30251 ft | 503 kts | 330° |
| 2025-10-08 02:12 | 54.39625 | 28.25451 | 30260 ft | 502 kts | 329° |
| 2025-10-08 02:14 | 54.64503 | 28.03820 | 30265 ft | 500 kts | 328° |
| 2025-10-08 02:16 | 54.89216 | 27.82011 | 30270 ft | 497 kts | 329° |
| 2025-10-08 02:19 | 55.16665 | 27.57476 | 30279 ft | 488 kts | 331° |
| 2025-10-08 02:20 | 55.37613 | 27.38440 | 30281 ft | 480 kts | 332° |
| 2025-10-08 02:22 | 55.61076 | 27.16727 | 30281 ft | 471 kts | 334° |
| 2025-10-08 02:24 | 55.84093 | 26.95382 | 30266 ft | 463 kts | 337° |
| 2025-10-08 02:26 | 56.07150 | 26.75712 | 30263 ft | 456 kts | 339° |
| 2025-10-08 02:28 | 56.29934 | 26.55998 | 30256 ft | 454 kts | 339° |
| 2025-10-08 02:30 | 56.52561 | 26.36160 | 30256 ft | 452 kts | 338° |
| 2025-10-08 02:32 | 56.75081 | 26.16040 | 30251 ft | 450 kts | 338° |
| 2025-10-08 02:34 | 56.97461 | 25.95865 | 30248 ft | 447 kts | 337° |
| 2025-10-08 02:36 | 57.16927 | 25.78095 | 30236 ft | 445 kts | 337° |
| 2025-10-08 02:38 | 57.41795 | 25.54950 | 30227 ft | 445 kts | 336° |
| 2025-10-08 02:40 | 57.63887 | 25.34121 | 30213 ft | 446 kts | 336° |
| 2025-10-08 02:42 | 57.86080 | 25.12912 | 30210 ft | 448 kts | 336° |
| 2025-10-08 02:44 | 58.08590 | 24.92820 | 30197 ft | 448 kts | 342° |
| 2025-10-08 02:46 | 58.31944 | 24.76135 | 30182 ft | 450 kts | 341° |
| 2025-10-08 02:48 | 58.54406 | 24.59727 | 30181 ft | 452 kts | 340° |
| 2025-10-08 02:50 | 58.77977 | 24.42263 | 30165 ft | 456 kts | 340° |
| 2025-10-08 02:52 | 58.98494 | 24.26754 | 32033 ft | 451 kts | 339° |
| 2025-10-08 02:54 | 59.24796 | 24.06685 | 32125 ft | 453 kts | 339° |
| 2025-10-08 02:56 | 59.45365 | 23.90757 | 32116 ft | 455 kts | 338° |
| 2025-10-08 03:00 | 59.94934 | 23.50077 | 32060 ft | 457 kts | 334° |
| 2025-10-08 03:03 | 60.21002 | 23.25727 | 32047 ft | 461 kts | 334° |
| 2025-10-08 03:04 | 60.41316 | 23.06495 | 32027 ft | 462 kts | 333° |
| 2025-10-08 03:06 | 60.64592 | 22.84062 | 31994 ft | 463 kts | 332° |
| 2025-10-08 03:08 | 60.87833 | 22.61279 | 31969 ft | 464 kts | 332° |
| 2025-10-08 03:10 | 61.11122 | 22.38132 | 31949 ft | 464 kts | 332° |
| 2025-10-08 03:12 | 61.34356 | 22.14650 | 31918 ft | 465 kts | 331° |
| 2025-10-08 03:14 | 61.57489 | 21.90349 | 31912 ft | 465 kts | 330° |
| 2025-10-08 03:16 | 61.77654 | 21.68729 | 31891 ft | 465 kts | 330° |
| 2025-10-08 03:19 | 62.06442 | 21.37318 | 31848 ft | 465 kts | 329° |